Time;durP1;ratioP1;P1;durP2;ratioP2;P2;SDS_P1;SDS_P2;PMS_P1;PMS_P2;Temp;Humidity;BMP_temperature;BMP_pressure;BME280_temperature;BME280_humidity;BME280_pressure;Samples;Min_cycle;Max_cycle;Signal;HPM_P1;HPM_P2
2021/07/03 00:02:13;;;;;;;15.13;6.80;;;;;;;;;;5015542;28;20053;-56
2021/07/03 00:04:40;;;;;;;22.17;8.27;;;;;;;;;;5016085;28;20045;-55
2021/07/03 00:07:06;;;;;;;16.45;8.20;;;;;;;;;;5015916;28;20045;-56
2021/07/03 00:09:33;;;;;;;20.17;8.88;;;;;;;;;;5014785;28;20037;-58
2021/07/03 00:12:02;;;;;;;17.27;9.00;;;;;;;;;;5016597;28;20034;-57
2021/07/03 00:14:29;;;;;;;17.60;9.35;;;;;;;;;;5015323;28;20092;-58
2021/07/03 00:16:54;;;;;;;15.25;8.90;;;;;;;;;;5013754;28;20489;-55
2021/07/03 00:19:20;;;;;;;13.70;8.40;;;;;;;;;;5016785;28;20037;-57
2021/07/03 00:21:46;;;;;;;16.58;9.82;;;;;;;;;;5021811;28;20050;-57
2021/07/03 00:24:12;;;;;;;16.50;8.73;;;;;;;;;;5017784;28;20469;-59
2021/07/03 00:26:38;;;;;;;17.77;8.38;;;;;;;;;;5017599;28;20051;-56
2021/07/03 00:29:04;;;;;;;13.10;6.80;;;;;;;;;;5019541;28;22012;-57
2021/07/03 00:31:30;;;;;;;15.48;5.95;;;;;;;;;;5020472;28;20494;-57
2021/07/03 00:33:56;;;;;;;13.05;5.00;;;;;;;;;;5022546;28;20471;-57
2021/07/03 00:36:22;;;;;;;10.40;4.45;;;;;;;;;;5019562;28;20793;-57
2021/07/03 00:38:48;;;;;;;13.77;4.72;;;;;;;;;;5019817;28;20037;-58
2021/07/03 00:41:14;;;;;;;13.85;4.03;;;;;;;;;;5021320;28;20172;-57
2021/07/03 00:43:40;;;;;;;10.07;3.50;;;;;;;;;;5020824;28;20051;-57
2021/07/03 00:46:05;;;;;;;4.20;2.08;;;;;;;;;;5020281;28;20033;-58
2021/07/03 00:48:31;;;;;;;14.60;4.68;;;;;;;;;;5019457;28;20041;-58
2021/07/03 00:50:57;;;;;;;18.17;3.85;;;;;;;;;;5019749;28;20176;-57
2021/07/03 00:53:23;;;;;;;15.27;4.05;;;;;;;;;;5018916;28;20057;-56
2021/07/03 00:55:49;;;;;;;5.32;2.45;;;;;;;;;;5020407;28;20056;-57
2021/07/03 00:58:16;;;;;;;6.20;2.65;;;;;;;;;;5021229;28;20360;-57
2021/07/03 01:00:42;;;;;;;6.95;2.92;;;;;;;;;;5020491;28;20160;-57
2021/07/03 01:03:08;;;;;;;6.82;2.80;;;;;;;;;;5021319;28;20068;-57
2021/07/03 01:05:34;;;;;;;7.97;4.03;;;;;;;;;;5019454;28;20224;-58
2021/07/03 01:08:00;;;;;;;8.45;2.97;;;;;;;;;;5020087;28;20145;-58
2021/07/03 01:10:27;;;;;;;10.48;3.72;;;;;;;;;;5019199;28;20493;-58
2021/07/03 01:12:53;;;;;;;11.98;2.63;;;;;;;;;;5019309;28;20084;-56
2021/07/03 01:15:20;;;;;;;8.45;2.75;;;;;;;;;;5017728;28;20474;-57
2021/07/03 01:17:45;;;;;;;6.80;3.22;;;;;;;;;;5018254;28;20042;-57
2021/07/03 01:20:12;;;;;;;5.22;2.83;;;;;;;;;;5019367;28;20053;-56
2021/07/03 01:22:39;;;;;;;4.25;2.38;;;;;;;;;;5018244;28;20199;-56
2021/07/03 01:25:06;;;;;;;5.55;2.53;;;;;;;;;;5019441;28;20585;-53
2021/07/03 01:27:32;;;;;;;8.07;2.72;;;;;;;;;;5012067;28;20045;-55
2021/07/03 01:29:58;;;;;;;6.50;3.28;;;;;;;;;;5019107;28;20050;-56
2021/07/03 01:32:24;;;;;;;8.32;2.80;;;;;;;;;;5019213;28;20563;-57
2021/07/03 01:34:50;;;;;;;11.43;3.47;;;;;;;;;;5019624;28;20041;-56
2021/07/03 01:37:16;;;;;;;5.10;2.67;;;;;;;;;;5018741;28;20095;-57
2021/07/03 01:39:42;;;;;;;7.07;2.70;;;;;;;;;;5018052;28;20067;-56
2021/07/03 01:42:07;;;;;;;6.63;2.75;;;;;;;;;;5016981;28;21038;-56
2021/07/03 01:44:34;;;;;;;6.50;2.70;;;;;;;;;;5017713;28;20458;-56
2021/07/03 01:47:00;;;;;;;5.60;2.10;;;;;;;;;;5018266;28;20457;-56
2021/07/03 01:49:27;;;;;;;4.75;2.47;;;;;;;;;;5016807;28;20034;-55
2021/07/03 01:51:53;;;;;;;2.83;1.52;;;;;;;;;;5018926;28;20037;-55
2021/07/03 01:54:19;;;;;;;5.97;3.00;;;;;;;;;;5018124;28;20429;-56
2021/07/03 01:56:45;;;;;;;5.22;2.28;;;;;;;;;;5018997;28;20061;-57
2021/07/03 01:59:12;;;;;;;5.57;2.10;;;;;;;;;;5017809;28;20042;-54
2021/07/03 02:01:38;;;;;;;5.35;2.50;;;;;;;;;;5016563;28;20173;-57
2021/07/03 02:04:04;;;;;;;6.15;2.38;;;;;;;;;;5019536;28;20445;-56
2021/07/03 02:06:30;;;;;;;3.67;1.80;;;;;;;;;;5017446;28;20040;-55
2021/07/03 02:08:56;;;;;;;6.05;1.98;;;;;;;;;;5020537;28;20041;-56
2021/07/03 02:11:22;;;;;;;7.30;1.83;;;;;;;;;;5011607;28;20073;-56
2021/07/03 02:13:48;;;;;;;4.68;2.10;;;;;;;;;;5021912;28;20061;-57
2021/07/03 02:16:14;;;;;;;5.05;2.20;;;;;;;;;;5017698;28;20834;-57
2021/07/03 02:18:40;;;;;;;4.03;2.03;;;;;;;;;;5018522;28;20045;-54
2021/07/03 02:21:05;;;;;;;5.32;2.15;;;;;;;;;;5019808;28;20052;-56
2021/07/03 02:23:37;;;;;;;7.85;2.50;;;;;;;;;;5019545;28;20043;-56
2021/07/03 02:26:03;;;;;;;4.93;2.08;;;;;;;;;;5019648;28;20133;-57
2021/07/03 02:28:29;;;;;;;7.20;2.13;;;;;;;;;;5018080;28;20089;-56
2021/07/03 02:30:54;;;;;;;4.45;1.92;;;;;;;;;;5018342;28;20056;-56
2021/07/03 02:33:20;;;;;;;5.95;1.80;;;;;;;;;;5017136;28;20051;-56
2021/07/03 02:35:46;;;;;;;5.85;2.13;;;;;;;;;;5017385;28;20045;-55
2021/07/03 02:38:12;;;;;;;4.22;1.92;;;;;;;;;;5016080;28;20049;-56
2021/07/03 02:40:38;;;;;;;4.03;1.70;;;;;;;;;;5017519;28;20041;-56
2021/07/03 02:43:04;;;;;;;5.22;2.22;;;;;;;;;;5018468;28;20041;-55
2021/07/03 02:45:30;;;;;;;4.70;1.83;;;;;;;;;;5018144;28;20029;-55
2021/07/03 02:47:55;;;;;;;4.35;1.55;;;;;;;;;;5018388;28;20124;-55
2021/07/03 02:50:22;;;;;;;3.80;1.85;;;;;;;;;;5017581;28;20045;-54
2021/07/03 02:52:47;;;;;;;3.88;1.88;;;;;;;;;;5018361;28;20549;-56
2021/07/03 02:55:13;;;;;;;4.38;1.83;;;;;;;;;;5018315;28;20049;-55
2021/07/03 02:57:39;;;;;;;4.40;2.10;;;;;;;;;;5017672;28;20068;-55
2021/07/03 03:00:07;;;;;;;4.75;2.03;;;;;;;;;;5019432;28;20525;-55
2021/07/03 03:02:33;;;;;;;4.63;1.80;;;;;;;;;;5032852;28;20045;-55
2021/07/03 03:04:58;;;;;;;4.00;1.92;;;;;;;;;;5017260;28;20378;-55
2021/07/03 03:07:24;;;;;;;3.65;1.88;;;;;;;;;;5016236;28;20148;-54
2021/07/03 03:09:50;;;;;;;4.03;1.70;;;;;;;;;;5016746;28;20083;-54
2021/07/03 03:12:16;;;;;;;3.25;1.73;;;;;;;;;;5017486;28;20055;-56
2021/07/03 03:14:42;;;;;;;3.38;1.60;;;;;;;;;;5016327;28;20818;-53
2021/07/03 03:17:08;;;;;;;3.35;1.27;;;;;;;;;;5017821;28;20051;-55
2021/07/03 03:19:33;;;;;;;4.75;2.33;;;;;;;;;;5016204;28;20057;-54
2021/07/03 03:21:59;;;;;;;3.97;1.85;;;;;;;;;;5016747;28;20061;-55
2021/07/03 03:24:25;;;;;;;7.55;2.28;;;;;;;;;;5016572;28;20383;-55
2021/07/03 03:26:51;;;;;;;4.72;2.05;;;;;;;;;;5018055;28;20041;-55
2021/07/03 03:29:17;;;;;;;3.55;1.65;;;;;;;;;;5015222;28;20237;-56
2021/07/03 03:31:42;;;;;;;3.92;2.03;;;;;;;;;;5016609;28;20151;-54
2021/07/03 03:34:08;;;;;;;3.95;1.88;;;;;;;;;;5017900;28;21347;-55
2021/07/03 03:36:34;;;;;;;6.07;2.00;;;;;;;;;;5012586;28;20196;-55
2021/07/03 03:39:00;;;;;;;4.78;1.70;;;;;;;;;;5017393;28;20375;-56
2021/07/03 03:41:26;;;;;;;6.45;2.30;;;;;;;;;;5016434;28;20081;-55
2021/07/03 03:43:52;;;;;;;4.00;1.67;;;;;;;;;;5018022;28;20474;-56
2021/07/03 03:46:18;;;;;;;4.70;1.95;;;;;;;;;;5015265;28;20033;-56
2021/07/03 03:48:44;;;;;;;5.50;2.42;;;;;;;;;;5016556;28;20101;-56
2021/07/03 03:51:10;;;;;;;3.90;1.90;;;;;;;;;;5015194;28;20033;-57
2021/07/03 03:53:35;;;;;;;4.93;2.05;;;;;;;;;;5015547;28;20144;-57
2021/07/03 03:56:01;;;;;;;3.40;1.77;;;;;;;;;;5016560;28;20037;-57
2021/07/03 03:58:27;;;;;;;4.72;2.53;;;;;;;;;;5016210;28;20037;-58
2021/07/03 04:00:53;;;;;;;4.40;2.17;;;;;;;;;;5016692;28;20052;-56
2021/07/03 04:03:19;;;;;;;4.82;2.13;;;;;;;;;;5015368;28;20052;-57
2021/07/03 04:05:44;;;;;;;4.45;2.00;;;;;;;;;;5015567;28;20386;-57
2021/07/03 04:08:10;;;;;;;4.53;2.30;;;;;;;;;;5008762;28;20634;-57
2021/07/03 04:10:36;;;;;;;4.47;2.30;;;;;;;;;;5010893;28;20053;-55
2021/07/03 04:13:02;;;;;;;4.68;2.22;;;;;;;;;;5015199;28;20378;-57
2021/07/03 04:15:28;;;;;;;4.70;2.00;;;;;;;;;;5013414;28;20045;-57
2021/07/03 04:17:54;;;;;;;4.63;2.03;;;;;;;;;;5014859;28;20912;-55
2021/07/03 04:20:20;;;;;;;4.60;2.42;;;;;;;;;;5012938;28;20483;-57
2021/07/03 04:22:45;;;;;;;5.03;2.45;;;;;;;;;;5014794;28;20070;-56
2021/07/03 04:25:12;;;;;;;4.68;2.13;;;;;;;;;;5014607;28;20087;-57
2021/07/03 04:27:39;;;;;;;5.95;2.42;;;;;;;;;;5013570;28;21808;-56
2021/07/03 04:30:05;;;;;;;5.15;2.40;;;;;;;;;;5015318;28;20506;-57
2021/07/03 04:32:31;;;;;;;4.13;2.08;;;;;;;;;;5014173;28;20109;-56
2021/07/03 04:34:57;;;;;;;5.18;2.30;;;;;;;;;;5015473;28;20038;-57
2021/07/03 04:37:23;;;;;;;9.68;2.28;;;;;;;;;;5012389;28;20100;-56
2021/07/03 04:39:49;;;;;;;5.10;2.10;;;;;;;;;;5014939;28;20457;-56
2021/07/03 04:42:14;;;;;;;5.32;2.53;;;;;;;;;;5015194;28;20056;-56
2021/07/03 04:44:40;;;;;;;7.13;2.80;;;;;;;;;;5013116;28;20129;-58
2021/07/03 04:47:06;;;;;;;4.75;2.20;;;;;;;;;;5014267;28;20647;-57
2021/07/03 04:49:33;;;;;;;3.50;1.60;;;;;;;;;;5013822;28;20046;-56
2021/07/03 04:51:59;;;;;;;5.15;2.47;;;;;;;;;;5015888;28;20265;-53
2021/07/03 04:54:25;;;;;;;7.32;2.70;;;;;;;;;;5014516;28;20498;-55
2021/07/03 04:56:51;;;;;;;5.75;2.60;;;;;;;;;;5014034;28;20048;-55
2021/07/03 04:59:17;;;;;;;5.32;2.72;;;;;;;;;;5015973;28;20461;-55
2021/07/03 05:01:43;;;;;;;5.15;2.50;;;;;;;;;;5013143;28;20064;-53
2021/07/03 05:04:09;;;;;;;5.78;2.25;;;;;;;;;;5015201;28;20766;-55
2021/07/03 05:06:34;;;;;;;4.90;2.22;;;;;;;;;;5017040;28;20052;-55
2021/07/03 05:09:00;;;;;;;4.57;2.15;;;;;;;;;;5019114;28;20064;-54
2021/07/03 05:11:26;;;;;;;6.60;2.67;;;;;;;;;;5018868;28;20502;-55
2021/07/03 05:13:52;;;;;;;7.15;2.65;;;;;;;;;;5019277;28;20092;-52
2021/07/03 05:16:17;;;;;;;5.35;2.75;;;;;;;;;;5017879;28;20409;-55
2021/07/03 05:18:43;;;;;;;4.80;2.72;;;;;;;;;;5031318;28;20037;-56
2021/07/03 05:21:09;;;;;;;5.93;3.05;;;;;;;;;;5018593;28;20052;-53
2021/07/03 05:23:35;;;;;;;5.88;2.58;;;;;;;;;;5018322;28;20037;-55
2021/07/03 05:26:01;;;;;;;7.22;3.00;;;;;;;;;;5017660;28;20048;-55
2021/07/03 05:28:26;;;;;;;5.32;2.75;;;;;;;;;;5017300;28;20045;-54
2021/07/03 05:30:52;;;;;;;4.78;2.60;;;;;;;;;;5017794;28;20445;-55
2021/07/03 05:33:18;;;;;;;5.95;2.58;;;;;;;;;;5018258;28;20041;-54
2021/07/03 05:35:44;;;;;;;5.18;2.50;;;;;;;;;;5016058;28;20499;-53
2021/07/03 05:38:10;;;;;;;6.88;3.20;;;;;;;;;;5017314;28;20047;-53
2021/07/03 05:40:36;;;;;;;5.25;3.05;;;;;;;;;;5018112;28;20049;-55
2021/07/03 05:43:02;;;;;;;7.25;3.08;;;;;;;;;;5019459;28;20781;-55
2021/07/03 05:45:28;;;;;;;6.18;2.85;;;;;;;;;;5017137;28;20046;-55
2021/07/03 05:47:54;;;;;;;6.57;3.28;;;;;;;;;;5018108;28;20063;-55
2021/07/03 05:50:24;;;;;;;5.80;2.90;;;;;;;;;;5017887;28;20042;-54
2021/07/03 05:52:50;;;;;;;5.05;2.47;;;;;;;;;;5019842;28;20038;-56
2021/07/03 05:55:16;;;;;;;7.40;3.22;;;;;;;;;;5019379;28;20038;-56
2021/07/03 05:57:42;;;;;;;5.55;3.13;;;;;;;;;;5016850;28;22125;-54
2021/07/03 06:00:09;;;;;;;6.18;3.25;;;;;;;;;;5018953;28;20099;-55
2021/07/03 06:02:35;;;;;;;6.00;3.40;;;;;;;;;;5018039;28;20045;-55
2021/07/03 06:05:01;;;;;;;6.30;3.28;;;;;;;;;;5020549;28;20080;-54
2021/07/03 06:07:27;;;;;;;6.10;3.28;;;;;;;;;;5018464;28;20048;-55
2021/07/03 06:09:52;;;;;;;7.80;3.38;;;;;;;;;;5019076;28;20140;-55
2021/07/03 06:12:18;;;;;;;5.68;3.22;;;;;;;;;;5018581;28;20084;-52
2021/07/03 06:14:44;;;;;;;5.18;2.97;;;;;;;;;;5019162;28;20550;-55
2021/07/03 06:17:13;;;;;;;6.53;3.10;;;;;;;;;;5018761;28;20052;-55
2021/07/03 06:19:43;;;;;;;5.30;2.70;;;;;;;;;;5018143;28;20437;-55
2021/07/03 06:22:13;;;;;;;7.80;3.10;;;;;;;;;;5018979;28;20088;-54
2021/07/03 06:24:39;;;;;;;5.65;3.10;;;;;;;;;;5017582;28;20049;-54
2021/07/03 06:27:05;;;;;;;5.95;3.10;;;;;;;;;;5019815;28;20160;-55
2021/07/03 06:29:31;;;;;;;6.07;3.00;;;;;;;;;;5017144;28;20037;-52
2021/07/03 06:31:57;;;;;;;6.95;3.58;;;;;;;;;;5018065;28;20387;-55
2021/07/03 06:34:22;;;;;;;6.53;3.40;;;;;;;;;;5018499;28;21470;-55
2021/07/03 06:36:48;;;;;;;6.93;3.10;;;;;;;;;;5017453;28;20049;-56
2021/07/03 06:39:14;;;;;;;5.13;2.80;;;;;;;;;;5018277;28;20049;-56
2021/07/03 06:41:40;;;;;;;5.03;2.90;;;;;;;;;;5018834;28;20050;-53
2021/07/03 06:44:06;;;;;;;5.70;3.10;;;;;;;;;;5021222;28;20041;-55
2021/07/03 06:46:32;;;;;;;5.57;2.88;;;;;;;;;;5020230;28;20094;-56
2021/07/03 06:48:57;;;;;;;6.05;3.15;;;;;;;;;;5019319;28;20068;-55
2021/07/03 06:51:24;;;;;;;5.15;2.70;;;;;;;;;;5017479;28;20040;-52
2021/07/03 06:53:49;;;;;;;5.85;3.20;;;;;;;;;;5019161;28;20049;-54
2021/07/03 06:56:15;;;;;;;5.20;3.08;;;;;;;;;;5019540;28;20046;-53
2021/07/03 06:58:41;;;;;;;6.10;2.80;;;;;;;;;;5017235;28;20041;-55
2021/07/03 07:01:07;;;;;;;5.70;2.75;;;;;;;;;;5018820;28;20045;-54
2021/07/03 07:03:32;;;;;;;7.22;2.72;;;;;;;;;;5017244;28;20042;-56
2021/07/03 07:05:58;;;;;;;5.80;3.05;;;;;;;;;;5019559;28;20052;-53
2021/07/03 07:08:24;;;;;;;5.75;3.05;;;;;;;;;;5016824;28;20045;-55
2021/07/03 07:10:50;;;;;;;5.72;2.97;;;;;;;;;;5017370;28;20052;-52
2021/07/03 07:13:16;;;;;;;6.85;3.20;;;;;;;;;;5016955;28;20042;-55
2021/07/03 07:15:42;;;;;;;5.35;2.65;;;;;;;;;;5017033;28;20148;-52
2021/07/03 07:18:08;;;;;;;4.70;2.67;;;;;;;;;;5016560;28;20041;-55
2021/07/03 07:20:33;;;;;;;5.93;2.75;;;;;;;;;;5016957;28;20045;-54
2021/07/03 07:22:59;;;;;;;5.55;2.72;;;;;;;;;;5017845;28;20128;-55
2021/07/03 07:25:25;;;;;;;6.55;3.35;;;;;;;;;;5016383;28;20088;-53
2021/07/03 07:27:51;;;;;;;5.40;2.88;;;;;;;;;;5017180;28;20757;-52
2021/07/03 07:30:19;;;;;;;5.28;2.90;;;;;;;;;;5015897;28;20586;-55
2021/07/03 07:32:45;;;;;;;7.68;3.50;;;;;;;;;;5017943;28;20128;-54
2021/07/03 07:35:11;;;;;;;8.50;3.53;;;;;;;;;;5017840;28;20080;-52
2021/07/03 07:37:37;;;;;;;6.47;3.40;;;;;;;;;;5014829;28;20038;-55
2021/07/03 07:40:03;;;;;;;7.75;3.92;;;;;;;;;;5014328;28;20163;-54
2021/07/03 07:42:29;;;;;;;9.13;3.17;;;;;;;;;;5009047;28;20075;-55
2021/07/03 07:44:55;;;;;;;7.13;3.40;;;;;;;;;;5015959;28;20418;-55
2021/07/03 07:47:21;;;;;;;6.70;3.47;;;;;;;;;;5014434;28;20130;-52
2021/07/03 07:49:49;;;;;;;8.25;3.63;;;;;;;;;;5016778;28;20850;-53
2021/07/03 07:52:16;;;;;;;7.10;3.60;;;;;;;;;;5015445;28;20052;-55
2021/07/03 07:54:41;;;;;;;6.72;3.40;;;;;;;;;;5016079;28;20478;-55
2021/07/03 07:57:07;;;;;;;5.82;3.35;;;;;;;;;;5016792;28;20048;-54
2021/07/03 07:59:33;;;;;;;8.85;3.50;;;;;;;;;;5016150;28;20033;-55
2021/07/03 08:01:59;;;;;;;7.20;3.38;;;;;;;;;;5015778;28;20049;-53
2021/07/03 08:04:25;;;;;;;6.00;3.00;;;;;;;;;;5015289;28;20034;-55
2021/07/03 08:06:50;;;;;;;6.90;3.60;;;;;;;;;;5017359;28;20669;-54
2021/07/03 08:09:16;;;;;;;6.43;3.55;;;;;;;;;;5015959;28;20072;-55
2021/07/03 08:11:42;;;;;;;7.82;3.50;;;;;;;;;;5015061;28;20091;-52
2021/07/03 08:14:08;;;;;;;7.15;3.15;;;;;;;;;;5017000;28;20415;-54
2021/07/03 08:16:34;;;;;;;5.45;3.28;;;;;;;;;;5016163;28;20453;-54
2021/07/03 08:19:00;;;;;;;5.85;3.30;;;;;;;;;;5015621;28;20080;-54
2021/07/03 08:21:25;;;;;;;5.53;3.05;;;;;;;;;;5014488;28;20041;-55
2021/07/03 08:23:52;;;;;;;6.38;3.33;;;;;;;;;;5015844;28;20037;-55
2021/07/03 08:26:18;;;;;;;5.72;2.95;;;;;;;;;;5016895;28;20033;-54
2021/07/03 08:28:44;;;;;;;6.65;3.20;;;;;;;;;;5015555;28;20034;-51
2021/07/03 08:31:09;;;;;;;6.07;3.60;;;;;;;;;;5017253;28;20052;-52
2021/07/03 08:33:35;;;;;;;5.93;3.35;;;;;;;;;;5012264;28;20038;-51
2021/07/03 08:36:01;;;;;;;5.82;3.40;;;;;;;;;;5018320;28;20045;-55
2021/07/03 08:38:27;;;;;;;8.52;3.85;;;;;;;;;;5016346;28;20061;-54
2021/07/03 08:40:54;;;;;;;7.57;4.18;;;;;;;;;;5019385;28;20050;-54
2021/07/03 08:43:20;;;;;;;6.43;3.53;;;;;;;;;;5021237;28;20061;-54
2021/07/03 08:45:46;;;;;;;6.18;3.70;;;;;;;;;;5021689;28;20128;-54
2021/07/03 08:48:16;;;;;;;6.65;3.78;;;;;;;;;;5018826;28;20037;-55
2021/07/03 08:50:41;;;;;;;6.10;3.65;;;;;;;;;;5017905;28;20084;-51
2021/07/03 08:53:08;;;;;;;7.38;3.78;;;;;;;;;;5018213;28;20037;-52
2021/07/03 08:55:35;;;;;;;8.23;3.60;;;;;;;;;;5019495;28;20082;-52
2021/07/03 08:58:04;;;;;;;7.72;3.65;;;;;;;;;;5021906;28;20630;-54
2021/07/03 09:00:35;;;;;;;8.40;4.45;;;;;;;;;;5023389;28;20088;-54
2021/07/03 09:03:09;;;;;;;10.55;4.68;;;;;;;;;;5021635;28;20065;-54
2021/07/03 09:05:35;;;;;;;8.30;4.63;;;;;;;;;;5020867;28;20044;-54
2021/07/03 09:08:02;;;;;;;9.07;4.20;;;;;;;;;;5019859;28;20042;-53
2021/07/03 09:10:30;;;;;;;7.55;4.13;;;;;;;;;;5019830;28;20072;-54
2021/07/03 09:12:58;;;;;;;7.80;4.60;;;;;;;;;;5020504;28;20398;-54
2021/07/03 09:15:25;;;;;;;8.77;4.53;;;;;;;;;;5019757;28;20033;-52
2021/07/03 09:17:52;;;;;;;8.23;4.43;;;;;;;;;;5019339;28;20041;-54
2021/07/03 09:20:22;;;;;;;10.73;5.40;;;;;;;;;;5020514;28;20038;-54
2021/07/03 09:22:48;;;;;;;9.75;4.22;;;;;;;;;;5016254;28;20930;-53
2021/07/03 09:25:18;;;;;;;7.80;4.90;;;;;;;;;;5019975;28;20041;-53
2021/07/03 09:27:44;;;;;;;7.28;4.75;;;;;;;;;;5017402;28;20075;-53
2021/07/03 09:30:10;;;;;;;9.02;5.00;;;;;;;;;;5019740;28;20049;-54
2021/07/03 09:32:36;;;;;;;8.95;4.75;;;;;;;;;;5019215;28;20038;-55
2021/07/03 09:35:09;;;;;;;9.27;4.10;;;;;;;;;;5019933;28;20048;-55
2021/07/03 09:37:35;;;;;;;8.68;4.75;;;;;;;;;;5016808;28;20042;-54
2021/07/03 09:40:07;;;;;;;7.63;4.53;;;;;;;;;;5018294;28;20039;-52
2021/07/03 09:42:36;;;;;;;6.57;4.25;;;;;;;;;;5017877;28;20045;-55
2021/07/03 09:45:03;;;;;;;7.25;3.85;;;;;;;;;;5019838;28;20037;-54
2021/07/03 09:47:29;;;;;;;7.15;4.43;;;;;;;;;;5018357;28;20383;-55
2021/07/03 09:50:06;;;;;;;8.52;5.00;;;;;;;;;;5018306;28;20574;-54
2021/07/03 09:52:33;;;;;;;7.60;4.07;;;;;;;;;;5031818;28;20042;-54
2021/07/03 09:54:59;;;;;;;7.82;4.55;;;;;;;;;;5019609;28;20041;-55
2021/07/03 09:57:25;;;;;;;6.32;4.00;;;;;;;;;;5017073;28;20900;-54
2021/07/03 09:59:51;;;;;;;8.32;4.88;;;;;;;;;;5019085;28;20046;-55
2021/07/03 10:02:16;;;;;;;9.57;4.57;;;;;;;;;;5018631;28;20400;-54
2021/07/03 10:04:42;;;;;;;8.40;4.50;;;;;;;;;;5018581;28;20079;-51
2021/07/03 10:07:17;;;;;;;8.43;4.32;;;;;;;;;;5018541;28;20084;-54
2021/07/03 10:09:45;;;;;;;7.35;3.90;;;;;;;;;;5019263;28;20495;-55
2021/07/03 10:12:14;;;;;;;8.82;4.28;;;;;;;;;;5020347;28;20124;-54
2021/07/03 10:14:42;;;;;;;7.25;4.40;;;;;;;;;;5019694;28;20038;-54
2021/07/03 10:17:08;;;;;;;9.88;4.68;;;;;;;;;;5020588;28;20034;-53
2021/07/03 10:19:34;;;;;;;8.07;4.55;;;;;;;;;;5020808;28;20060;-55
2021/07/03 10:22:14;;;;;;;7.43;4.43;;;;;;;;;;5022248;28;20176;-55
2021/07/03 10:24:44;;;;;;;7.53;4.05;;;;;;;;;;5011639;28;20441;-55
2021/07/03 10:27:17;;;;;;;10.48;4.35;;;;;;;;;;5018765;28;20029;-55
2021/07/03 10:29:44;;;;;;;8.25;4.20;;;;;;;;;;5019452;28;20589;-54
2021/07/03 10:32:30;;;;;;;7.45;4.18;;;;;;;;;;5019665;28;20034;-53
2021/07/03 10:35:07;;;;;;;7.38;4.40;;;;;;;;;;5017628;28;20916;-55
2021/07/03 10:37:34;;;;;;;9.68;4.13;;;;;;;;;;5015756;28;20049;-52
2021/07/03 10:40:00;;;;;;;8.93;4.25;;;;;;;;;;5017628;28;20120;-54
2021/07/03 10:42:34;;;;;;;5.95;3.47;;;;;;;;;;5020158;28;20049;-56
2021/07/03 10:45:26;;;;;;;7.32;3.70;;;;;;;;;;5020145;28;20051;-55
2021/07/03 10:47:52;;;;;;;6.43;3.55;;;;;;;;;;5009412;28;20041;-55
2021/07/03 10:50:21;;;;;;;7.88;4.07;;;;;;;;;;4998491;28;20048;-55
2021/07/03 10:52:47;;;;;;;8.00;4.70;;;;;;;;;;4997506;28;20125;-55
2021/07/03 10:55:13;;;;;;;7.30;4.10;;;;;;;;;;5005675;28;20413;-52
2021/07/03 10:57:43;;;;;;;6.13;3.45;;;;;;;;;;5017066;28;20042;-54
2021/07/03 11:00:11;;;;;;;8.13;4.03;;;;;;;;;;5018946;28;20079;-55
2021/07/03 11:02:36;;;;;;;6.80;3.80;;;;;;;;;;5016111;28;20056;-54
2021/07/03 11:05:22;;;;;;;10.70;4.50;;;;;;;;;;5018911;28;20030;-53
2021/07/03 11:07:48;;;;;;;6.38;3.72;;;;;;;;;;5017208;28;20041;-54
2021/07/03 11:10:14;;;;;;;7.28;3.70;;;;;;;;;;5019492;28;20041;-54
2021/07/03 11:12:46;;;;;;;6.68;3.38;;;;;;;;;;5019132;28;20231;-54
2021/07/03 11:15:16;;;;;;;6.85;3.75;;;;;;;;;;5020270;28;20046;-52
2021/07/03 11:17:42;;;;;;;6.13;3.78;;;;;;;;;;5018530;28;20101;-54
2021/07/03 11:20:08;;;;;;;7.07;3.53;;;;;;;;;;5019178;28;20402;-55
2021/07/03 11:22:40;;;;;;;6.38;3.58;;;;;;;;;;5017307;28;20052;-55
2021/07/03 11:25:06;;;;;;;6.03;3.72;;;;;;;;;;5017954;28;20044;-55
2021/07/03 11:27:34;;;;;;;7.68;3.40;;;;;;;;;;5015364;28;20496;-55
2021/07/03 11:30:01;;;;;;;6.70;3.45;;;;;;;;;;5017510;28;20394;-55
2021/07/03 11:32:27;;;;;;;6.65;3.60;;;;;;;;;;5015999;28;20041;-54
2021/07/03 11:34:57;;;;;;;6.78;3.67;;;;;;;;;;5015039;28;20037;-54
2021/07/03 11:37:27;;;;;;;6.30;3.80;;;;;;;;;;5014469;28;20045;-52
2021/07/03 11:39:53;;;;;;;7.22;4.22;;;;;;;;;;5015438;28;20466;-54
2021/07/03 11:42:25;;;;;;;7.50;3.97;;;;;;;;;;5015067;28;20058;-53
2021/07/03 11:45:08;;;;;;;6.80;3.83;;;;;;;;;;5001835;28;20128;-55
2021/07/03 11:47:35;;;;;;;6.50;3.83;;;;;;;;;;4996834;28;20259;-53
2021/07/03 11:50:01;;;;;;;6.07;3.40;;;;;;;;;;4997688;28;20045;-55
2021/07/03 11:52:27;;;;;;;6.95;4.05;;;;;;;;;;4996168;28;20081;-55
2021/07/03 11:55:05;;;;;;;8.82;4.45;;;;;;;;;;4996210;28;20121;-54
2021/07/03 11:57:41;;;;;;;9.68;3.97;;;;;;;;;;4996321;28;20107;-55
2021/07/03 12:00:08;;;;;;;7.15;3.80;;;;;;;;;;5012554;28;20807;-55
2021/07/03 12:02:35;;;;;;;8.90;4.18;;;;;;;;;;4997250;28;20521;-52
2021/07/03 12:05:01;;;;;;;8.82;4.03;;;;;;;;;;4997013;28;20042;-55
2021/07/03 12:07:27;;;;;;;6.38;3.90;;;;;;;;;;4995244;28;20030;-54
2021/07/03 12:10:04;;;;;;;9.70;4.00;;;;;;;;;;4997304;28;20041;-55
2021/07/03 12:12:29;;;;;;;9.95;4.35;;;;;;;;;;4996068;28;20057;-55
2021/07/03 12:14:59;;;;;;;7.47;3.97;;;;;;;;;;4995138;28;20124;-54
2021/07/03 12:17:26;;;;;;;8.57;3.85;;;;;;;;;;4995583;28;20895;-54
2021/07/03 12:20:01;;;;;;;7.93;4.53;;;;;;;;;;4996983;28;20125;-54
2021/07/03 12:22:27;;;;;;;6.28;3.78;;;;;;;;;;4995107;28;20458;-53
2021/07/03 12:24:53;;;;;;;6.93;4.05;;;;;;;;;;4995932;28;20121;-54
2021/07/03 12:27:23;;;;;;;7.00;3.80;;;;;;;;;;4996356;28;20738;-54
2021/07/03 12:29:48;;;;;;;7.60;3.85;;;;;;;;;;4996691;28;20045;-55
2021/07/03 12:32:14;;;;;;;6.38;3.70;;;;;;;;;;4994431;28;20445;-54
2021/07/03 12:34:41;;;;;;;7.72;3.67;;;;;;;;;;4996008;28;20046;-55
2021/07/03 12:37:12;;;;;;;6.90;3.72;;;;;;;;;;4994539;28;20042;-54
2021/07/03 12:39:39;;;;;;;10.68;3.60;;;;;;;;;;4996432;28;20042;-55
2021/07/03 12:42:10;;;;;;;7.53;4.30;;;;;;;;;;4996780;28;20128;-54
2021/07/03 12:44:43;;;;;;;7.03;3.78;;;;;;;;;;4995935;28;20519;-54
2021/07/03 12:47:12;;;;;;;7.82;4.38;;;;;;;;;;4996046;28;20046;-53
2021/07/03 12:49:39;;;;;;;7.50;4.15;;;;;;;;;;4994887;28;20042;-56
2021/07/03 12:52:06;;;;;;;10.55;4.38;;;;;;;;;;4997588;28;20030;-54
2021/07/03 12:54:32;;;;;;;8.23;4.15;;;;;;;;;;4996152;28;20130;-55
2021/07/03 12:56:58;;;;;;;6.95;3.90;;;;;;;;;;4996260;28;20044;-51
2021/07/03 12:59:34;;;;;;;8.85;4.57;;;;;;;;;;4994829;28;20410;-55
2021/07/03 13:02:07;;;;;;;7.38;4.13;;;;;;;;;;4996252;28;20053;-55
2021/07/03 13:04:33;;;;;;;6.97;4.00;;;;;;;;;;4994276;28;20057;-54
2021/07/03 13:06:59;;;;;;;7.90;4.22;;;;;;;;;;4996024;28;20042;-55
2021/07/03 13:09:26;;;;;;;9.82;4.68;;;;;;;;;;4995873;28;20596;-54
2021/07/03 13:11:52;;;;;;;8.68;4.38;;;;;;;;;;4997470;28;20066;-55
2021/07/03 13:14:17;;;;;;;7.82;4.80;;;;;;;;;;4994639;28;20045;-55
2021/07/03 13:16:43;;;;;;;8.35;4.25;;;;;;;;;;4996748;28;20042;-55
2021/07/03 13:19:09;;;;;;;7.25;4.32;;;;;;;;;;4997053;28;20041;-55
2021/07/03 13:21:35;;;;;;;7.70;4.30;;;;;;;;;;4997008;28;20050;-55
2021/07/03 13:24:01;;;;;;;8.18;4.68;;;;;;;;;;4994966;28;20092;-55
2021/07/03 13:26:27;;;;;;;8.48;5.43;;;;;;;;;;4996723;28;20069;-55
2021/07/03 13:28:52;;;;;;;9.90;4.85;;;;;;;;;;5001041;28;20038;-54
2021/07/03 13:31:18;;;;;;;13.73;5.00;;;;;;;;;;5000896;28;20034;-52
2021/07/03 13:33:44;;;;;;;9.60;5.22;;;;;;;;;;5001856;28;20076;-54
2021/07/03 13:36:10;;;;;;;8.90;5.07;;;;;;;;;;5001002;28;20060;-51
2021/07/03 13:38:36;;;;;;;9.40;5.18;;;;;;;;;;5000571;28;20168;-55
2021/07/03 13:41:02;;;;;;;9.38;5.43;;;;;;;;;;4997799;28;20688;-53
2021/07/03 13:43:28;;;;;;;8.60;5.22;;;;;;;;;;4999695;28;20049;-55
2021/07/03 13:45:54;;;;;;;10.00;5.38;;;;;;;;;;4998522;28;20455;-57
2021/07/03 13:48:21;;;;;;;10.27;5.88;;;;;;;;;;4998194;28;20049;-56
2021/07/03 13:50:49;;;;;;;9.82;5.50;;;;;;;;;;4998325;28;20574;-57
2021/07/03 13:53:15;;;;;;;13.35;6.63;;;;;;;;;;4999527;28;20035;-56
2021/07/03 13:55:40;;;;;;;7.85;4.20;;;;;;;;;;5011466;28;20084;-55
2021/07/03 13:58:06;;;;;;;10.05;5.53;;;;;;;;;;4999740;28;20767;-57
2021/07/03 14:00:32;;;;;;;10.00;5.68;;;;;;;;;;4992603;28;20046;-56
2021/07/03 14:02:58;;;;;;;9.20;5.22;;;;;;;;;;5005766;28;20045;-55
2021/07/03 14:05:24;;;;;;;9.27;5.40;;;;;;;;;;5000571;28;20037;-57
2021/07/03 14:07:50;;;;;;;10.52;6.00;;;;;;;;;;5002137;28;20038;-54
2021/07/03 14:10:16;;;;;;;10.85;6.95;;;;;;;;;;5001687;28;20113;-57
2021/07/03 14:12:42;;;;;;;10.15;5.65;;;;;;;;;;5000616;28;20506;-57
2021/07/03 14:15:09;;;;;;;10.63;6.18;;;;;;;;;;5001931;28;20038;-57
2021/07/03 14:17:35;;;;;;;13.32;5.95;;;;;;;;;;5001710;28;20037;-57
2021/07/03 14:20:08;;;;;;;9.75;5.78;;;;;;;;;;5001120;28;20048;-56
2021/07/03 14:22:34;;;;;;;9.23;5.90;;;;;;;;;;5001104;28;20046;-56
2021/07/03 14:25:01;;;;;;;8.63;5.25;;;;;;;;;;5001811;28;20038;-57
2021/07/03 14:27:28;;;;;;;8.95;5.18;;;;;;;;;;5001723;28;20042;-57
2021/07/03 14:29:54;;;;;;;8.73;5.60;;;;;;;;;;5000498;28;20089;-56
2021/07/03 14:32:20;;;;;;;8.38;5.50;;;;;;;;;;4998673;28;20490;-57
2021/07/03 14:34:46;;;;;;;10.98;6.25;;;;;;;;;;4999683;28;20045;-57
2021/07/03 14:37:12;;;;;;;10.00;6.15;;;;;;;;;;4999044;28;20220;-55
2021/07/03 14:39:39;;;;;;;9.00;5.68;;;;;;;;;;5010749;28;22096;-56